Main page
METAR-TAF:

METAR-TAF

Airports :

Burgas, Bulgaria

Burgas Airport

latitude: 42-29N, longitude: 027-29E, elevation: 16 m

Current weather observation

The report was made 15 minutes ago, at 04:30 UTC
Wind 3 kt from the West
Temperature 15°C
Humidity 63%
Pressure 1018 hPa
Visibility 10 km or more
no clouds below 1500 m and no cumulonimbus

METAR: LBBG 240430Z 26003KT CAVOK 15/08 Q1018 NOSIG

Time: 07:45 (04:45 UTC)

Forecast

The report was made 5 hours and 45 minutes ago, at 23:00 UTC
Forecast valid from 24 at 00 UTC to 24 at 24 UTC
Wind 4 kt from variable directions
Visibility 10 km or more
no clouds below 1500 m and no cumulonimbus
Becoming
from 24 at 11 UTC to 24 at 13 UTC
Wind 12 kt from the East

TAF: LBBG 232300Z 2400/2424 VRB04KT CAVOK BECMG 2411/2413 10012KT

Weather observations and forecasts of more than 4000 airports (METAR and TAF reports).

The available stations are represented by yellow and red dots on the map.

Hover mouse over dot to see the name of the station.

Then click to see weather observations and forecasts.

To change the map : click on the green buttons with a black cross to zoom in, on the green button with a dash to zoom out, or on the green arrows for adjacent maps.


METAR-TAF: